Time,TemperatureF,DewpointF,PressureIn,WindDirection,WindDirectionDegrees,WindSpeedMPH,WindSpeedGustMPH,Humidity,HourlyPrecipIn,Conditions,Clouds,dailyrainin,SoftwareType,DateUTC
2013-06-17 00:04:00,74.8,61.9,28.41,NW,308,4.9,5.4,64,0.00,,---,0.00,VWS V14.01,2013-06-17 05:04:00,
2013-06-17 00:09:00,73.2,60.8,28.41,SSE,149,2.7,8.1,65,0.00,,---,0.00,VWS V14.01,2013-06-17 05:09:00,
2013-06-17 00:14:00,71.8,60.7,28.41,West,269,0.0,8.1,68,0.00,,---,0.00,VWS V14.01,2013-06-17 05:14:00,
2013-06-17 00:19:00,70.3,61.3,28.41,WSW,257,0.0,10.5,73,0.00,,---,0.00,VWS V14.01,2013-06-17 05:19:00,
2013-06-17 00:24:00,69.4,61.2,28.41,West,277,0.0,10.5,75,0.00,,---,0.00,VWS V14.01,2013-06-17 05:24:00,
2013-06-17 00:29:00,69.1,61.2,28.41,SSE,165,2.7,10.5,76,0.00,,---,0.00,VWS V14.01,2013-06-17 05:29:00,
2013-06-17 00:34:00,68.9,61.4,28.41,WSW,255,5.8,10.5,77,0.00,,---,0.00,VWS V14.01,2013-06-17 05:34:00,
2013-06-17 00:39:00,69.1,61.9,28.38,SW,230,2.2,10.5,78,0.00,,---,0.00,VWS V14.01,2013-06-17 05:39:00,
2013-06-17 00:44:00,69.1,61.9,28.38,NNE,22,0.0,10.5,78,0.00,,---,0.00,VWS V14.01,2013-06-17 05:44:00,
2013-06-17 00:50:00,69.1,61.9,28.38,SSW,206,0.0,10.5,78,0.00,,---,0.00,VWS V14.01,2013-06-17 05:50:00,
2013-06-17 00:55:00,68.9,62.5,28.41,SSE,151,2.2,10.5,80,0.00,,---,0.00,VWS V14.01,2013-06-17 05:55:00,
2013-06-17 01:00:00,68.5,62.8,28.41,WSW,256,6.3,10.5,82,0.00,,---,0.00,VWS V14.01,2013-06-17 06:00:00,
2013-06-17 01:05:00,68.7,65.0,28.41,North,5,0.0,6.3,88,0.00,,---,0.00,VWS V14.01,2013-06-17 06:05:00,
2013-06-17 01:10:00,68.9,66.2,28.41,WNW,283,3.6,6.3,91,0.00,,---,0.00,VWS V14.01,2013-06-17 06:10:00,
2013-06-17 01:15:00,68.7,66.0,28.41,WNW,288,2.7,6.3,91,0.00,,---,0.00,VWS V14.01,2013-06-17 06:15:00,
2013-06-17 01:20:00,68.7,66.0,28.41,WNW,284,2.2,6.3,91,0.08,,---,0.08,VWS V14.01,2013-06-17 06:20:00,
2013-06-17 01:25:00,68.5,65.8,28.41,WNW,298,4.0,6.3,91,0.08,,---,0.08,VWS V14.01,2013-06-17 06:25:00,
2013-06-17 01:30:00,68.7,66.3,28.41,WSW,248,3.6,9.6,92,0.08,,---,0.08,VWS V14.01,2013-06-17 06:30:00,
2013-06-17 01:35:00,68.5,66.1,28.41,WSW,257,3.1,10.1,92,0.08,,---,0.08,VWS V14.01,2013-06-17 06:35:00,
2013-06-17 01:41:00,68.4,66.3,28.41,West,263,2.2,10.1,93,0.08,,---,0.08,VWS V14.01,2013-06-17 06:41:00,
2013-06-17 01:46:00,68.4,66.6,28.41,West,271,2.7,10.1,94,0.12,,---,0.12,VWS V14.01,2013-06-17 06:46:00,
2013-06-17 01:51:00,68.2,66.4,28.38,West,268,0.0,10.1,94,0.12,,---,0.12,VWS V14.01,2013-06-17 06:51:00,
2013-06-17 01:56:00,68.2,66.4,28.38,West,279,7.6,10.1,94,0.12,,---,0.12,VWS V14.01,2013-06-17 06:56:00,
2013-06-17 02:01:00,68.4,66.9,28.38,West,262,2.2,4.0,95,0.12,,---,0.12,VWS V14.01,2013-06-17 07:01:00,
2013-06-17 02:06:00,68.2,66.7,28.38,West,275,0.0,5.4,95,0.12,,---,0.12,VWS V14.01,2013-06-17 07:06:00,
2013-06-17 02:11:00,68.2,66.7,28.38,West,260,0.0,5.4,95,0.12,,---,0.12,VWS V14.01,2013-06-17 07:11:00,
2013-06-17 02:16:00,68.2,66.7,28.38,West,260,0.0,5.4,95,0.12,,---,0.12,VWS V14.01,2013-06-17 07:16:00,
2013-06-17 02:21:00,68.2,66.7,28.38,West,260,0.0,5.4,95,0.12,,---,0.12,VWS V14.01,2013-06-17 07:21:00,
2013-06-17 02:27:00,68.2,66.7,28.38,West,260,0.0,5.4,95,0.12,,---,0.12,VWS V14.01,2013-06-17 07:27:00,
2013-06-17 02:32:00,68.0,66.5,28.38,WSW,249,0.0,5.4,95,0.12,,---,0.12,VWS V14.01,2013-06-17 07:32:00,
2013-06-17 02:37:00,67.8,66.3,28.38,WSW,257,0.0,5.4,95,0.12,,---,0.12,VWS V14.01,2013-06-17 07:37:00,
2013-06-17 02:42:00,67.6,66.2,28.38,WSW,257,0.0,5.4,95,0.12,,---,0.12,VWS V14.01,2013-06-17 07:42:00,
2013-06-17 02:47:00,67.6,66.2,28.38,WSW,257,0.0,5.4,95,0.16,,---,0.16,VWS V14.01,2013-06-17 07:47:00,
2013-06-17 02:52:00,67.5,66.0,28.38,WSW,257,0.0,5.4,95,0.16,,---,0.16,VWS V14.01,2013-06-17 07:52:00,
2013-06-17 02:57:00,67.3,65.8,28.38,WSW,257,0.0,5.4,95,0.16,,---,0.16,VWS V14.01,2013-06-17 07:57:00,
2013-06-17 03:02:00,67.3,65.8,28.38,WSW,257,0.0,0.0,95,0.04,,---,0.16,VWS V14.01,2013-06-17 08:02:00,
2013-06-17 03:07:00,67.1,65.6,28.35,WSW,257,0.0,0.0,95,0.04,,---,0.16,VWS V14.01,2013-06-17 08:07:00,
2013-06-17 03:12:00,67.1,65.6,28.35,WSW,257,0.0,0.0,95,0.04,,---,0.16,VWS V14.01,2013-06-17 08:12:00,
2013-06-17 03:18:00,67.1,65.6,28.35,WSW,257,0.0,0.0,95,0.08,,---,0.20,VWS V14.01,2013-06-17 08:18:00,
2013-06-17 03:23:00,67.1,65.6,28.32,WSW,257,0.0,0.0,95,0.08,,---,0.20,VWS V14.01,2013-06-17 08:23:00,
2013-06-17 03:28:00,67.1,65.3,28.32,WSW,256,0.0,0.0,94,0.08,,---,0.20,VWS V14.01,2013-06-17 08:28:00,
2013-06-17 03:33:00,66.9,65.1,28.32,SW,226,2.2,4.0,94,0.08,,---,0.20,VWS V14.01,2013-06-17 08:33:00,
2013-06-17 03:38:00,66.7,65.0,28.29,SSE,152,2.7,4.0,94,0.08,,---,0.20,VWS V14.01,2013-06-17 08:38:00,
2013-06-17 03:43:00,66.6,64.8,28.29,ESE,117,3.1,4.9,94,0.08,,---,0.20,VWS V14.01,2013-06-17 08:43:00,
2013-06-17 03:48:00,66.4,64.6,28.29,SSW,199,2.7,5.8,94,0.08,,---,0.20,VWS V14.01,2013-06-17 08:48:00,
2013-06-17 03:53:00,66.4,64.6,28.26,ESE,122,3.1,8.1,94,0.08,,---,0.20,VWS V14.01,2013-06-17 08:53:00,
2013-06-17 03:58:00,66.4,64.6,28.26,SSE,163,2.2,8.1,94,0.08,,---,0.20,VWS V14.01,2013-06-17 08:58:00,
2013-06-17 04:04:00,66.9,65.1,28.26,SE,138,6.3,6.3,94,0.04,,---,0.20,VWS V14.01,2013-06-17 09:04:00,
2013-06-17 04:09:00,67.6,66.2,28.20,SSE,166,8.3,8.3,95,0.04,,---,0.20,VWS V14.01,2013-06-17 09:09:00,
2013-06-17 04:14:00,68.2,66.7,28.20,SE,140,4.0,10.1,95,0.04,,---,0.20,VWS V14.01,2013-06-17 09:14:00,
2013-06-17 04:19:00,68.9,67.4,28.20,South,183,3.1,10.1,95,0.04,,---,0.20,VWS V14.01,2013-06-17 09:19:00,
2013-06-17 04:24:00,69.4,67.6,28.20,North,357,4.0,10.1,94,0.04,,---,0.20,VWS V14.01,2013-06-17 09:24:00,
2013-06-17 04:29:00,69.6,67.2,28.20,WSW,249,2.7,10.1,92,0.04,,---,0.20,VWS V14.01,2013-06-17 09:29:00,
2013-06-17 04:34:00,70.0,66.6,28.20,SW,217,3.1,10.1,89,0.04,,---,0.20,VWS V14.01,2013-06-17 09:34:00,
2013-06-17 04:39:00,70.2,65.4,28.29,WSW,257,0.0,10.1,85,0.04,,---,0.20,VWS V14.01,2013-06-17 09:39:00,
2013-06-17 04:44:00,70.2,64.4,28.29,WNW,303,0.0,10.1,82,0.04,,---,0.20,VWS V14.01,2013-06-17 09:44:00,
2013-06-17 04:50:00,70.5,64.8,28.29,NW,305,0.0,10.1,82,0.04,,---,0.20,VWS V14.01,2013-06-17 09:50:00,
2013-06-17 04:55:00,70.7,64.6,28.35,NW,305,0.0,10.1,81,0.04,,---,0.20,VWS V14.01,2013-06-17 09:55:00,
2013-06-17 05:00:00,70.5,64.4,28.35,NW,305,0.0,10.1,81,0.04,,---,0.20,VWS V14.01,2013-06-17 10:00:00,
2013-06-17 05:05:00,70.3,64.2,28.35,NW,305,0.0,0.0,81,0.00,,---,0.20,VWS V14.01,2013-06-17 10:05:00,
2013-06-17 05:10:00,70.3,64.6,28.35,West,263,4.9,5.4,82,0.00,,---,0.20,VWS V14.01,2013-06-17 10:10:00,
2013-06-17 05:15:00,70.0,64.2,28.35,West,264,0.0,5.4,82,0.00,,---,0.20,VWS V14.01,2013-06-17 10:15:00,
2013-06-17 05:20:00,69.6,64.6,28.35,West,264,0.0,5.4,84,0.00,,---,0.20,VWS V14.01,2013-06-17 10:20:00,
2013-06-17 05:25:00,69.4,64.7,28.35,West,264,0.0,5.4,85,0.00,,---,0.20,VWS V14.01,2013-06-17 10:25:00,
2013-06-17 05:30:00,69.3,64.9,28.35,West,264,0.0,5.4,86,0.00,,---,0.20,VWS V14.01,2013-06-17 10:30:00,
2013-06-17 05:35:00,68.9,64.9,28.35,West,264,0.0,5.4,87,0.00,,---,0.20,VWS V14.01,2013-06-17 10:35:00,
2013-06-17 05:41:00,68.7,65.0,28.38,West,264,0.0,5.4,88,0.00,,---,0.20,VWS V14.01,2013-06-17 10:41:00,
2013-06-17 05:46:00,68.5,64.8,28.38,West,264,0.0,5.4,88,0.00,,---,0.20,VWS V14.01,2013-06-17 10:46:00,
2013-06-17 05:51:00,68.5,64.8,28.38,West,264,0.0,5.4,88,0.00,,---,0.20,VWS V14.01,2013-06-17 10:51:00,
2013-06-17 05:56:00,68.5,64.8,28.38,West,264,0.0,5.4,88,0.00,,---,0.20,VWS V14.01,2013-06-17 10:56:00,
2013-06-17 06:01:00,68.7,65.3,28.38,West,264,0.0,0.0,89,0.00,,---,0.20,VWS V14.01,2013-06-17 11:01:00,
2013-06-17 06:06:00,68.7,65.3,28.35,West,264,0.0,0.0,89,0.00,,---,0.20,VWS V14.01,2013-06-17 11:06:00,
2013-06-17 06:11:00,68.7,65.7,28.35,West,264,0.0,0.0,90,0.00,,---,0.20,VWS V14.01,2013-06-17 11:11:00,
2013-06-17 06:16:00,68.7,65.7,28.35,West,264,0.0,0.0,90,0.00,,---,0.20,VWS V14.01,2013-06-17 11:16:00,
2013-06-17 06:21:00,68.5,65.5,28.35,West,264,0.0,0.0,90,0.00,,---,0.20,VWS V14.01,2013-06-17 11:21:00,
2013-06-17 06:27:00,68.7,66.0,28.35,West,264,0.0,0.0,91,0.00,,---,0.20,VWS V14.01,2013-06-17 11:27:00,
2013-06-17 06:32:00,68.5,65.8,28.35,West,264,0.0,0.0,91,0.00,,---,0.20,VWS V14.01,2013-06-17 11:32:00,
2013-06-17 06:37:00,68.5,66.1,28.35,West,264,0.0,0.0,92,0.00,,---,0.20,VWS V14.01,2013-06-17 11:37:00,
2013-06-17 06:42:00,68.7,66.3,28.35,West,264,0.0,0.0,92,0.00,,---,0.20,VWS V14.01,2013-06-17 11:42:00,
2013-06-17 06:47:00,68.7,66.6,28.35,West,264,0.0,0.0,93,0.00,,---,0.20,VWS V14.01,2013-06-17 11:47:00,
2013-06-17 06:52:00,68.9,66.8,28.38,West,264,0.0,0.0,93,0.00,,---,0.20,VWS V14.01,2013-06-17 11:52:00,
2013-06-17 06:57:00,68.9,66.8,28.38,West,264,0.0,0.0,93,0.00,,---,0.20,VWS V14.01,2013-06-17 11:57:00,
2013-06-17 07:02:00,69.1,67.0,28.38,West,264,0.0,0.0,93,0.00,,---,0.20,VWS V14.01,2013-06-17 12:02:00,
2013-06-17 07:07:00,69.3,67.5,28.38,West,264,0.0,0.0,94,0.00,,---,0.20,VWS V14.01,2013-06-17 12:07:00,
2013-06-17 07:13:00,69.3,67.5,28.38,West,264,0.0,0.0,94,0.00,,---,0.20,VWS V14.01,2013-06-17 12:13:00,
2013-06-17 07:18:00,69.4,67.6,28.38,West,264,0.0,0.0,94,0.00,,---,0.20,VWS V14.01,2013-06-17 12:18:00,
2013-06-17 07:23:00,69.4,67.6,28.38,West,264,0.0,0.0,94,0.00,,---,0.20,VWS V14.01,2013-06-17 12:23:00,
2013-06-17 07:28:00,69.6,68.1,28.38,West,264,0.0,0.0,95,0.00,,---,0.20,VWS V14.01,2013-06-17 12:28:00,
2013-06-17 07:33:00,69.6,68.1,28.38,West,264,0.0,0.0,95,0.00,,---,0.20,VWS V14.01,2013-06-17 12:33:00,
2013-06-17 07:38:00,69.8,68.3,28.41,West,264,0.0,0.0,95,0.00,,---,0.20,VWS V14.01,2013-06-17 12:38:00,
2013-06-17 07:43:00,70.0,68.5,28.41,NNE,17,2.2,5.4,95,0.00,,---,0.20,VWS V14.01,2013-06-17 12:43:00,
2013-06-17 07:48:00,70.2,68.7,28.41,NNE,26,2.2,5.4,95,0.00,,---,0.20,VWS V14.01,2013-06-17 12:48:00,
2013-06-17 07:53:00,70.2,68.7,28.41,NNW,346,3.1,6.3,95,0.00,,---,0.20,VWS V14.01,2013-06-17 12:53:00,
2013-06-17 07:59:00,70.3,68.8,28.41,NNE,24,4.0,6.3,95,0.00,,---,0.20,VWS V14.01,2013-06-17 12:59:00,
2013-06-17 08:04:00,70.3,68.8,28.41,NNE,32,2.7,6.3,95,0.00,,---,0.20,VWS V14.01,2013-06-17 13:04:00,
2013-06-17 08:09:00,70.2,68.7,28.41,NNE,17,0.0,8.3,95,0.00,,---,0.20,VWS V14.01,2013-06-17 13:09:00,
2013-06-17 08:14:00,70.3,68.8,28.41,NNE,18,2.7,8.3,95,0.00,,---,0.20,VWS V14.01,2013-06-17 13:14:00,
2013-06-17 08:19:00,70.3,68.8,28.41,NNE,19,0.0,8.3,95,0.00,,---,0.20,VWS V14.01,2013-06-17 13:19:00,
2013-06-17 08:24:00,70.3,68.8,28.41,NNE,19,0.0,8.3,95,0.00,,---,0.20,VWS V14.01,2013-06-17 13:24:00,
2013-06-17 08:29:00,70.5,68.7,28.41,NNE,19,0.0,8.3,94,0.00,,---,0.20,VWS V14.01,2013-06-17 13:29:00,
2013-06-17 08:34:00,70.7,68.9,28.41,NNE,19,0.0,8.3,94,0.00,,---,0.20,VWS V14.01,2013-06-17 13:34:00,
2013-06-17 08:39:00,70.9,69.1,28.44,NNE,19,0.0,8.3,94,0.00,,---,0.20,VWS V14.01,2013-06-17 13:39:00,
2013-06-17 08:45:00,71.1,69.2,28.44,NNE,19,0.0,8.3,94,0.00,,---,0.20,VWS V14.01,2013-06-17 13:45:00,
2013-06-17 08:50:00,71.4,68.7,28.44,NNE,19,0.0,8.3,91,0.00,,---,0.20,VWS V14.01,2013-06-17 13:50:00,
2013-06-17 08:55:00,71.8,67.0,28.41,NNE,19,0.0,8.3,85,0.00,,---,0.20,VWS V14.01,2013-06-17 13:55:00,
2013-06-17 09:00:00,72.5,67.1,28.41,NNE,18,0.0,0.0,83,0.00,,---,0.20,VWS V14.01,2013-06-17 14:00:00,
2013-06-17 09:05:00,73.0,67.6,28.41,NNE,18,0.0,0.0,83,0.00,,---,0.20,VWS V14.01,2013-06-17 14:05:00,
2013-06-17 09:10:00,73.2,67.8,28.44,NNE,19,0.0,0.0,83,0.00,,---,0.20,VWS V14.01,2013-06-17 14:10:00,
2013-06-17 09:15:00,73.2,68.1,28.44,NNE,19,0.0,0.0,84,0.00,,---,0.20,VWS V14.01,2013-06-17 14:15:00,
2013-06-17 09:20:00,73.2,68.1,28.44,NNE,18,0.0,4.0,84,0.00,,---,0.20,VWS V14.01,2013-06-17 14:20:00,
2013-06-17 09:25:00,73.2,68.1,28.44,North,2,0.0,5.4,84,0.00,,---,0.20,VWS V14.01,2013-06-17 14:25:00,
2013-06-17 09:31:00,73.2,68.1,28.44,North,357,0.0,5.4,84,0.00,,---,0.20,VWS V14.01,2013-06-17 14:31:00,
2013-06-17 09:36:00,73.6,68.4,28.44,North,8,0.0,5.4,84,0.00,,---,0.20,VWS V14.01,2013-06-17 14:36:00,
2013-06-17 09:41:00,74.1,69.3,28.44,North,8,0.0,5.4,85,0.00,,---,0.20,VWS V14.01,2013-06-17 14:41:00,
2013-06-17 09:46:00,74.5,69.0,28.44,North,8,0.0,5.4,83,0.00,,---,0.20,VWS V14.01,2013-06-17 14:46:00,
2013-06-17 09:51:00,74.5,68.6,28.44,North,357,0.0,5.4,82,0.00,,---,0.20,VWS V14.01,2013-06-17 14:51:00,
2013-06-17 09:56:00,74.5,67.9,28.44,NNE,21,0.0,5.8,80,0.00,,---,0.20,VWS V14.01,2013-06-17 14:56:00,
2013-06-17 10:01:00,74.7,68.1,28.44,North,353,0.0,2.2,80,0.00,,---,0.20,VWS V14.01,2013-06-17 15:01:00,
2013-06-17 10:06:00,74.8,68.3,28.44,North,357,0.0,7.2,80,0.00,,---,0.20,VWS V14.01,2013-06-17 15:06:00,
2013-06-17 10:11:00,74.8,68.3,28.44,North,0,0.0,7.2,80,0.00,,---,0.20,VWS V14.01,2013-06-17 15:11:00,
2013-06-17 10:16:00,75.2,68.2,28.44,North,0,0.0,7.2,79,0.00,,---,0.20,VWS V14.01,2013-06-17 15:16:00,
2013-06-17 10:22:00,75.6,68.2,28.44,North,357,4.0,7.2,78,0.00,,---,0.20,VWS V14.01,2013-06-17 15:22:00,
2013-06-17 10:27:00,75.7,68.0,28.44,North,357,0.0,7.2,77,0.00,,---,0.20,VWS V14.01,2013-06-17 15:27:00,
2013-06-17 10:32:00,75.7,68.0,28.44,North,5,0.0,7.2,77,0.00,,---,0.20,VWS V14.01,2013-06-17 15:32:00,
2013-06-17 10:37:00,75.7,68.0,28.44,North,5,0.0,7.2,77,0.00,,---,0.20,VWS V14.01,2013-06-17 15:37:00,
2013-06-17 10:42:00,76.1,68.4,28.44,NNE,12,0.0,7.2,77,0.00,,---,0.20,VWS V14.01,2013-06-17 15:42:00,
2013-06-17 10:47:00,77.0,68.9,28.44,North,3,0.0,7.2,76,0.00,,---,0.20,VWS V14.01,2013-06-17 15:47:00,
2013-06-17 10:52:00,77.9,69.3,28.44,NNE,22,0.0,7.2,75,0.00,,---,0.20,VWS V14.01,2013-06-17 15:52:00,
2013-06-17 10:57:00,78.4,67.8,28.44,NNW,341,0.0,7.2,70,0.00,,---,0.20,VWS V14.01,2013-06-17 15:57:00,
2013-06-17 11:02:00,77.9,66.5,28.44,North,353,0.0,0.0,68,0.00,,---,0.20,VWS V14.01,2013-06-17 16:02:00,
2013-06-17 11:07:00,77.9,67.3,28.44,North,353,0.0,0.0,70,0.00,,---,0.20,VWS V14.01,2013-06-17 16:07:00,
2013-06-17 11:13:00,77.7,66.3,28.44,WNW,290,0.0,0.0,68,0.00,,---,0.20,VWS V14.01,2013-06-17 16:13:00,
2013-06-17 11:18:00,77.5,65.7,28.44,North,357,0.0,4.5,67,0.00,,---,0.20,VWS V14.01,2013-06-17 16:18:00,
2013-06-17 11:23:00,77.9,66.9,28.44,North,1,0.0,4.5,69,0.00,,---,0.20,VWS V14.01,2013-06-17 16:23:00,
2013-06-17 11:28:00,78.3,66.8,28.44,North,357,0.0,4.5,68,0.00,,---,0.20,VWS V14.01,2013-06-17 16:28:00,
2013-06-17 11:33:00,78.3,66.4,28.44,North,349,0.0,4.5,67,0.00,,---,0.20,VWS V14.01,2013-06-17 16:33:00,
2013-06-17 11:38:00,79.0,67.1,28.44,North,353,5.8,6.3,67,0.00,,---,0.20,VWS V14.01,2013-06-17 16:38:00,
2013-06-17 11:43:00,80.2,68.3,28.44,North,4,4.0,6.3,67,0.00,,---,0.20,VWS V14.01,2013-06-17 16:43:00,
2013-06-17 11:48:00,80.6,65.4,28.44,North,10,0.0,6.3,60,0.00,,---,0.20,VWS V14.01,2013-06-17 16:48:00,
2013-06-17 11:53:00,80.2,65.6,28.44,NNW,342,0.0,6.3,61,0.00,,---,0.20,VWS V14.01,2013-06-17 16:53:00,
2013-06-17 11:58:00,80.6,64.5,28.44,NNW,340,4.9,6.3,58,0.00,,---,0.20,VWS V14.01,2013-06-17 16:58:00,
2013-06-17 12:04:00,80.8,66.1,28.44,North,353,0.0,5.8,61,0.00,,---,0.20,VWS V14.01,2013-06-17 17:04:00,
2013-06-17 12:09:00,81.3,65.6,28.44,SW,236,0.0,6.3,59,0.00,,---,0.20,VWS V14.01,2013-06-17 17:09:00,
2013-06-17 12:14:00,81.5,62.2,28.44,NW,314,3.1,6.3,52,0.00,,---,0.20,VWS V14.01,2013-06-17 17:14:00,
2013-06-17 12:19:00,81.9,65.2,28.44,NE,48,5.4,8.1,57,0.00,,---,0.20,VWS V14.01,2013-06-17 17:19:00,
2013-06-17 12:24:00,82.4,65.1,28.44,NE,48,4.0,8.1,56,0.00,,---,0.20,VWS V14.01,2013-06-17 17:24:00,
2013-06-17 12:29:00,83.3,67.0,28.44,NW,323,8.1,8.3,58,0.00,,---,0.20,VWS V14.01,2013-06-17 17:29:00,
2013-06-17 12:34:00,83.8,66.0,28.44,NNE,25,4.9,10.1,55,0.00,,---,0.20,VWS V14.01,2013-06-17 17:34:00,
2013-06-17 12:39:00,84.0,65.6,28.44,North,8,0.0,10.1,54,0.00,,---,0.20,VWS V14.01,2013-06-17 17:39:00,
2013-06-17 12:44:00,83.7,64.2,28.44,NNE,13,3.6,10.1,52,0.00,,---,0.20,VWS V14.01,2013-06-17 17:44:00,
2013-06-17 12:49:00,83.1,64.2,28.44,NW,315,0.0,10.1,53,0.00,,---,0.20,VWS V14.01,2013-06-17 17:49:00,
2013-06-17 12:54:00,82.9,64.6,28.44,North,357,0.0,10.1,54,0.00,,---,0.20,VWS V14.01,2013-06-17 17:54:00,
2013-06-17 13:00:00,83.1,64.8,28.44,North,353,2.2,10.1,54,0.00,,---,0.20,VWS V14.01,2013-06-17 18:00:00,
2013-06-17 13:05:00,83.7,66.3,28.44,North,357,0.0,7.6,56,0.00,,---,0.20,VWS V14.01,2013-06-17 18:05:00,
2013-06-17 13:10:00,83.7,63.1,28.44,NE,56,2.7,7.6,50,0.00,,---,0.20,VWS V14.01,2013-06-17 18:10:00,
2013-06-17 13:15:00,84.2,66.3,28.44,ENE,61,6.3,8.7,55,0.00,,---,0.20,VWS V14.01,2013-06-17 18:15:00,
2013-06-17 13:20:00,84.7,63.5,28.44,NNE,31,2.7,8.7,49,0.00,,---,0.20,VWS V14.01,2013-06-17 18:20:00,
2013-06-17 13:25:00,84.9,63.7,28.44,NNE,12,5.8,8.7,49,0.00,,---,0.20,VWS V14.01,2013-06-17 18:25:00,
2013-06-17 13:30:00,84.7,62.9,28.44,NNE,31,4.0,10.1,48,0.00,,---,0.20,VWS V14.01,2013-06-17 18:30:00,
2013-06-17 13:35:00,85.1,63.2,28.44,NNW,329,2.7,10.1,48,0.00,,---,0.20,VWS V14.01,2013-06-17 18:35:00,
2013-06-17 13:40:00,85.6,64.3,28.44,NE,40,5.4,10.1,49,0.00,,---,0.20,VWS V14.01,2013-06-17 18:40:00,
2013-06-17 13:45:00,85.8,63.9,28.44,NE,35,2.7,10.1,48,0.00,,---,0.20,VWS V14.01,2013-06-17 18:45:00,
2013-06-17 13:51:00,86.4,61.9,28.44,East,83,4.0,11.4,44,0.00,,---,0.20,VWS V14.01,2013-06-17 18:51:00,
2013-06-17 13:56:00,86.7,62.2,28.44,North,10,6.3,11.4,44,0.00,,---,0.20,VWS V14.01,2013-06-17 18:56:00,
2013-06-17 14:01:00,87.1,62.5,28.44,NE,34,3.6,6.3,44,0.00,,---,0.20,VWS V14.01,2013-06-17 19:01:00,
2013-06-17 14:06:00,87.1,61.9,28.41,NE,37,5.4,7.6,43,0.00,,---,0.20,VWS V14.01,2013-06-17 19:06:00,
2013-06-17 14:11:00,87.1,61.2,28.41,North,3,5.4,7.6,42,0.00,,---,0.20,VWS V14.01,2013-06-17 19:11:00,
2013-06-17 14:16:00,87.1,61.9,28.41,ENE,71,4.9,8.3,43,0.00,,---,0.20,VWS V14.01,2013-06-17 19:16:00,
2013-06-17 14:21:00,87.3,62.1,28.41,SSE,163,2.7,8.7,43,0.00,,---,0.20,VWS V14.01,2013-06-17 19:21:00,
2013-06-17 14:26:00,87.6,59.6,28.41,East,80,2.7,8.7,39,0.00,,---,0.20,VWS V14.01,2013-06-17 19:26:00,
2013-06-17 14:31:00,87.8,57.5,28.41,North,9,4.9,10.1,36,0.00,,---,0.20,VWS V14.01,2013-06-17 19:31:00,
2013-06-17 14:37:00,87.6,58.9,28.41,ENE,75,5.4,10.1,38,0.00,,---,0.20,VWS V14.01,2013-06-17 19:37:00,
2013-06-17 14:42:00,87.6,58.9,28.41,North,0,5.8,10.1,38,0.00,,---,0.20,VWS V14.01,2013-06-17 19:42:00,
2013-06-17 14:47:00,87.4,56.5,28.41,East,88,3.1,10.5,35,0.00,,---,0.20,VWS V14.01,2013-06-17 19:47:00,
2013-06-17 14:52:00,87.3,57.8,28.41,NNW,345,5.8,10.5,37,0.00,,---,0.20,VWS V14.01,2013-06-17 19:52:00,
2013-06-17 14:57:00,87.4,56.5,28.41,North,0,3.1,10.5,35,0.00,,---,0.20,VWS V14.01,2013-06-17 19:57:00,
2013-06-17 15:02:00,87.6,55.8,28.41,North,357,5.4,5.8,34,0.00,,---,0.20,VWS V14.01,2013-06-17 20:02:00,
2013-06-17 15:07:00,87.8,56.0,28.41,North,353,5.4,8.7,34,0.00,,---,0.20,VWS V14.01,2013-06-17 20:07:00,
2013-06-17 15:12:00,88.0,56.1,28.41,NNE,16,8.3,8.7,34,0.00,,---,0.20,VWS V14.01,2013-06-17 20:12:00,
2013-06-17 15:17:00,87.8,56.8,28.41,NNE,24,4.0,8.7,35,0.00,,---,0.20,VWS V14.01,2013-06-17 20:17:00,
2013-06-17 15:22:00,87.6,55.8,28.41,NNW,342,2.2,8.7,34,0.00,,---,0.20,VWS V14.01,2013-06-17 20:22:00,
2013-06-17 15:28:00,87.6,56.6,28.41,NE,44,6.3,8.7,35,0.00,,---,0.20,VWS V14.01,2013-06-17 20:28:00,
2013-06-17 15:33:00,87.3,55.5,28.41,SE,131,5.4,8.7,34,0.00,,---,0.20,VWS V14.01,2013-06-17 20:33:00,
2013-06-17 15:38:00,87.1,56.1,28.41,NE,56,3.1,8.7,35,0.00,,---,0.20,VWS V14.01,2013-06-17 20:38:00,
2013-06-17 15:43:00,87.3,55.5,28.41,NNE,22,3.1,8.7,34,0.00,,---,0.20,VWS V14.01,2013-06-17 20:43:00,
2013-06-17 15:48:00,87.1,54.5,28.41,NNE,13,5.4,8.7,33,0.00,,---,0.20,VWS V14.01,2013-06-17 20:48:00,
2013-06-17 15:53:00,86.9,55.2,28.41,North,357,3.1,8.7,34,0.00,,---,0.20,VWS V14.01,2013-06-17 20:53:00,
2013-06-17 15:58:00,86.5,54.0,28.41,North,353,4.0,8.7,33,0.00,,---,0.20,VWS V14.01,2013-06-17 20:58:00,
2013-06-17 16:03:00,86.2,53.7,28.41,NNE,21,3.1,5.4,33,0.00,,---,0.20,VWS V14.01,2013-06-17 21:03:00,
2013-06-17 16:08:00,85.8,53.4,28.41,North,2,4.9,5.8,33,0.00,,---,0.20,VWS V14.01,2013-06-17 21:08:00,
2013-06-17 16:13:00,85.6,53.3,28.41,NNE,23,5.8,6.3,33,0.00,,---,0.20,VWS V14.01,2013-06-17 21:13:00,
2013-06-17 16:19:00,85.5,53.9,28.41,NNE,27,4.9,6.3,34,0.00,,---,0.20,VWS V14.01,2013-06-17 21:19:00,
2013-06-17 16:24:00,85.3,54.6,28.41,NE,36,5.4,6.3,35,0.00,,---,0.20,VWS V14.01,2013-06-17 21:24:00,
2013-06-17 16:29:00,85.3,53.8,28.41,NNE,18,5.8,6.3,34,0.00,,---,0.20,VWS V14.01,2013-06-17 21:29:00,
2013-06-17 16:34:00,85.3,54.6,28.41,NNE,17,7.2,7.2,35,0.00,,---,0.20,VWS V14.01,2013-06-17 21:34:00,
2013-06-17 16:39:00,85.3,52.1,28.38,NNE,12,2.7,8.1,32,0.00,,---,0.20,VWS V14.01,2013-06-17 21:39:00,
2013-06-17 16:44:00,85.3,53.0,28.38,NNE,19,3.6,8.1,33,0.00,,---,0.20,VWS V14.01,2013-06-17 21:44:00,
2013-06-17 16:49:00,85.3,53.0,28.38,North,7,3.1,10.5,33,0.00,,---,0.20,VWS V14.01,2013-06-17 21:49:00,
2013-06-17 16:54:00,85.3,53.8,28.38,NE,54,0.0,10.5,34,0.00,,---,0.20,VWS V14.01,2013-06-17 21:54:00,
2013-06-17 16:59:00,85.3,53.8,28.38,North,11,0.0,10.5,34,0.00,,---,0.20,VWS V14.01,2013-06-17 21:59:00,
2013-06-17 17:04:00,85.1,53.6,28.38,NNE,21,2.7,6.3,34,0.00,,---,0.20,VWS V14.01,2013-06-17 22:04:00,
2013-06-17 17:10:00,85.1,53.6,28.38,North,4,4.9,6.3,34,0.00,,---,0.20,VWS V14.01,2013-06-17 22:10:00,
2013-06-17 17:15:00,84.9,51.8,28.38,North,357,2.2,6.3,32,0.00,,---,0.20,VWS V14.01,2013-06-17 22:15:00,
2013-06-17 17:20:00,84.9,53.5,28.38,South,179,2.7,6.3,34,0.00,,---,0.20,VWS V14.01,2013-06-17 22:20:00,
2013-06-17 17:25:00,85.1,54.4,28.38,East,80,0.0,6.3,35,0.00,,---,0.20,VWS V14.01,2013-06-17 22:25:00,
2013-06-17 17:30:00,85.3,55.3,28.38,North,0,2.2,6.3,36,0.00,,---,0.20,VWS V14.01,2013-06-17 22:30:00,
2013-06-17 17:35:00,85.3,56.1,28.38,NNE,21,0.0,6.3,37,0.00,,---,0.20,VWS V14.01,2013-06-17 22:35:00,
2013-06-17 17:40:00,85.1,55.9,28.38,NNE,21,5.4,6.3,37,0.00,,---,0.20,VWS V14.01,2013-06-17 22:40:00,
2013-06-17 17:45:00,84.9,56.5,28.38,NE,44,3.1,6.3,38,0.00,,---,0.20,VWS V14.01,2013-06-17 22:45:00,
2013-06-17 17:50:00,85.1,56.7,28.38,North,357,3.1,8.1,38,0.00,,---,0.20,VWS V14.01,2013-06-17 22:50:00,
2013-06-17 17:55:00,85.1,56.7,28.38,North,357,3.6,8.1,38,0.00,,---,0.20,VWS V14.01,2013-06-17 22:55:00,
2013-06-17 18:01:00,84.9,55.8,28.38,North,8,5.4,5.4,37,0.00,,---,0.20,VWS V14.01,2013-06-17 23:01:00,
2013-06-17 18:06:00,84.6,55.5,28.38,North,11,3.6,5.8,37,0.00,,---,0.20,VWS V14.01,2013-06-17 23:06:00,
2013-06-17 18:11:00,84.2,56.6,28.38,North,357,4.0,5.8,39,0.00,,---,0.20,VWS V14.01,2013-06-17 23:11:00,
2013-06-17 18:16:00,84.4,56.7,28.38,NNE,12,3.6,5.8,39,0.00,,---,0.20,VWS V14.01,2013-06-17 23:16:00,
2013-06-17 18:21:00,84.6,56.9,28.38,NNE,21,4.5,6.3,39,0.00,,---,0.20,VWS V14.01,2013-06-17 23:21:00,
2013-06-17 18:26:00,84.6,56.9,28.38,NNE,12,3.1,8.1,39,0.00,,---,0.20,VWS V14.01,2013-06-17 23:26:00,
2013-06-17 18:31:00,84.4,56.7,28.38,NNE,22,4.9,8.1,39,0.00,,---,0.20,VWS V14.01,2013-06-17 23:31:00,
2013-06-17 18:36:00,84.4,56.7,28.38,North,5,4.9,8.1,39,0.00,,---,0.20,VWS V14.01,2013-06-17 23:36:00,
2013-06-17 18:42:00,84.4,56.7,28.38,NNW,335,2.2,8.1,39,0.00,,---,0.20,VWS V14.01,2013-06-17 23:42:00,
2013-06-17 18:47:00,84.4,56.7,28.38,NNE,15,3.1,8.1,39,0.00,,---,0.20,VWS V14.01,2013-06-17 23:47:00,
2013-06-17 18:52:00,84.4,56.7,28.38,NNE,20,2.7,8.1,39,0.00,,---,0.20,VWS V14.01,2013-06-17 23:52:00,
2013-06-17 18:57:00,84.2,56.6,28.38,North,353,2.7,8.1,39,0.00,,---,0.20,VWS V14.01,2013-06-17 23:57:00,
2013-06-17 19:02:00,83.8,57.0,28.38,NNE,13,2.7,4.0,40,0.00,,---,0.20,VWS V14.01,2013-06-18 00:02:00,
2013-06-17 19:07:00,83.8,57.0,28.38,North,11,3.1,5.4,40,0.00,,---,0.20,VWS V14.01,2013-06-18 00:07:00,
2013-06-17 19:12:00,83.8,57.0,28.38,North,10,3.6,7.6,40,0.00,,---,0.20,VWS V14.01,2013-06-18 00:12:00,
2013-06-17 19:17:00,83.8,57.0,28.38,North,0,3.1,7.6,40,0.00,,---,0.20,VWS V14.01,2013-06-18 00:17:00,
2013-06-17 19:22:00,83.8,56.3,28.38,North,7,3.1,7.6,39,0.00,,---,0.20,VWS V14.01,2013-06-18 00:22:00,
2013-06-17 19:27:00,83.8,57.0,28.38,NNE,31,7.6,7.6,40,0.00,,---,0.20,VWS V14.01,2013-06-18 00:27:00,
2013-06-17 19:33:00,83.7,56.1,28.38,North,353,4.0,8.1,39,0.00,,---,0.20,VWS V14.01,2013-06-18 00:33:00,
2013-06-17 19:38:00,83.5,55.9,28.38,NNE,19,2.7,8.1,39,0.00,,---,0.20,VWS V14.01,2013-06-18 00:38:00,
2013-06-17 19:43:00,83.3,55.8,28.38,North,9,4.9,8.1,39,0.00,,---,0.20,VWS V14.01,2013-06-18 00:43:00,
2013-06-17 19:48:00,83.1,55.6,28.38,NNE,16,0.0,8.1,39,0.00,,---,0.20,VWS V14.01,2013-06-18 00:48:00,
2013-06-17 19:53:00,83.1,56.3,28.38,NNE,30,0.0,8.1,40,0.00,,---,0.20,VWS V14.01,2013-06-18 00:53:00,
2013-06-17 19:58:00,82.9,56.8,28.38,NE,37,2.7,8.1,41,0.00,,---,0.20,VWS V14.01,2013-06-18 00:58:00,
2013-06-17 20:03:00,82.8,57.3,28.38,North,357,2.7,4.0,42,0.00,,---,0.20,VWS V14.01,2013-06-18 01:03:00,
2013-06-17 20:08:00,82.6,57.2,28.38,NNE,18,0.0,4.0,42,0.00,,---,0.20,VWS V14.01,2013-06-18 01:08:00,
2013-06-17 20:13:00,82.4,57.0,28.38,NE,56,0.0,4.0,42,0.00,,---,0.20,VWS V14.01,2013-06-18 01:13:00,
2013-06-17 20:18:00,82.2,57.5,28.38,ENE,67,0.0,4.0,43,0.00,,---,0.20,VWS V14.01,2013-06-18 01:18:00,
2013-06-17 20:24:00,82.0,57.4,28.38,East,83,0.0,4.0,43,0.00,,---,0.20,VWS V14.01,2013-06-18 01:24:00,
2013-06-17 20:29:00,81.7,57.0,28.38,ENE,74,0.0,4.0,43,0.00,,---,0.20,VWS V14.01,2013-06-18 01:29:00,
2013-06-17 20:34:00,81.3,57.3,28.38,ENE,74,0.0,4.0,44,0.00,,---,0.20,VWS V14.01,2013-06-18 01:34:00,
2013-06-17 20:39:00,81.0,57.0,28.38,ENE,74,0.0,4.0,44,0.00,,---,0.20,VWS V14.01,2013-06-18 01:39:00,
2013-06-17 20:44:00,80.6,57.3,28.38,ENE,74,0.0,4.0,45,0.00,,---,0.20,VWS V14.01,2013-06-18 01:44:00,
2013-06-17 20:49:00,80.2,57.0,28.38,ENE,74,0.0,4.0,45,0.00,,---,0.20,VWS V14.01,2013-06-18 01:49:00,
2013-06-17 20:54:00,79.9,57.3,28.41,ENE,74,0.0,4.0,46,0.00,,---,0.20,VWS V14.01,2013-06-18 01:54:00,
2013-06-17 20:59:00,79.5,57.0,28.41,ENE,74,0.0,4.0,46,0.00,,---,0.20,VWS V14.01,2013-06-18 01:59:00,
2013-06-17 21:04:00,79.3,57.4,28.41,ENE,68,0.0,0.0,47,0.00,,---,0.20,VWS V14.01,2013-06-18 02:04:00,
2013-06-17 21:10:00,79.2,57.2,28.41,ENE,68,0.0,0.0,47,0.00,,---,0.20,VWS V14.01,2013-06-18 02:10:00,
2013-06-17 21:15:00,78.8,56.9,28.41,ENE,68,0.0,0.0,47,0.00,,---,0.20,VWS V14.01,2013-06-18 02:15:00,
2013-06-17 21:20:00,78.6,57.3,28.41,ENE,68,0.0,0.0,48,0.00,,---,0.20,VWS V14.01,2013-06-18 02:20:00,
2013-06-17 21:25:00,78.3,57.0,28.41,ENE,68,0.0,0.0,48,0.00,,---,0.20,VWS V14.01,2013-06-18 02:25:00,
2013-06-17 21:30:00,78.1,57.4,28.41,ENE,68,0.0,0.0,49,0.00,,---,0.20,VWS V14.01,2013-06-18 02:30:00,
2013-06-17 21:35:00,77.7,57.6,28.41,ENE,68,0.0,0.0,50,0.00,,---,0.20,VWS V14.01,2013-06-18 02:35:00,
2013-06-17 21:40:00,77.4,57.8,28.41,ENE,68,0.0,0.0,51,0.00,,---,0.20,VWS V14.01,2013-06-18 02:40:00,
2013-06-17 21:45:00,77.0,58.0,28.41,ENE,68,0.0,0.0,52,0.00,,---,0.20,VWS V14.01,2013-06-18 02:45:00,
2013-06-17 21:50:00,76.6,58.2,28.41,SSE,164,2.2,3.6,53,0.00,,---,0.20,VWS V14.01,2013-06-18 02:50:00,
2013-06-17 21:55:00,76.5,58.6,28.41,SSE,164,0.0,3.6,54,0.00,,---,0.20,VWS V14.01,2013-06-18 02:55:00,
2013-06-17 22:01:00,76.3,58.9,28.41,SSE,164,0.0,0.0,55,0.00,,---,0.20,VWS V14.01,2013-06-18 03:01:00,
2013-06-17 22:06:00,76.1,59.3,28.41,SSE,164,0.0,0.0,56,0.00,,---,0.20,VWS V14.01,2013-06-18 03:06:00,
2013-06-17 22:11:00,75.9,59.6,28.44,SSE,164,0.0,0.0,57,0.00,,---,0.20,VWS V14.01,2013-06-18 03:11:00,
2013-06-17 22:16:00,75.7,59.9,28.44,SSE,164,0.0,0.0,58,0.00,,---,0.20,VWS V14.01,2013-06-18 03:16:00,
2013-06-17 22:21:00,75.4,60.1,28.44,SSE,164,0.0,0.0,59,0.00,,---,0.20,VWS V14.01,2013-06-18 03:21:00,
2013-06-17 22:26:00,75.2,60.4,28.44,SSE,164,0.0,0.0,60,0.00,,---,0.20,VWS V14.01,2013-06-18 03:26:00,
2013-06-17 22:31:00,75.0,60.7,28.44,SSE,164,0.0,0.0,61,0.00,,---,0.20,VWS V14.01,2013-06-18 03:31:00,
2013-06-17 22:36:00,74.7,60.8,28.44,SSE,164,0.0,0.0,62,0.00,,---,0.20,VWS V14.01,2013-06-18 03:36:00,
2013-06-17 22:41:00,74.5,61.1,28.44,SSE,164,0.0,0.0,63,0.00,,---,0.20,VWS V14.01,2013-06-18 03:41:00,
2013-06-17 22:46:00,74.3,60.9,28.44,SSE,164,0.0,0.0,63,0.00,,---,0.20,VWS V14.01,2013-06-18 03:46:00,
2013-06-17 22:52:00,74.1,61.2,28.44,SSE,164,0.0,0.0,64,0.00,,---,0.20,VWS V14.01,2013-06-18 03:52:00,
2013-06-17 22:57:00,73.9,61.0,28.44,SSE,164,0.0,0.0,64,0.00,,---,0.20,VWS V14.01,2013-06-18 03:57:00,
2013-06-17 23:01:00,73.8,61.3,28.44,SSE,164,0.0,0.0,65,0.00,,---,0.20,VWS V14.01,2013-06-18 04:01:00,
2013-06-17 23:02:00,73.8,61.3,28.44,SSE,164,0.0,0.0,65,0.00,,---,0.20,VWS V14.01,2013-06-18 04:02:00,
2013-06-17 23:07:00,73.6,61.1,28.44,SSE,164,0.0,0.0,65,0.00,,---,0.20,VWS V14.01,2013-06-18 04:07:00,
2013-06-17 23:12:00,73.2,61.2,28.44,SSE,164,0.0,0.0,66,0.00,,---,0.20,VWS V14.01,2013-06-18 04:12:00,
2013-06-17 23:17:00,73.0,61.5,28.44,SSE,164,0.0,0.0,67,0.00,,---,0.20,VWS V14.01,2013-06-18 04:17:00,
2013-06-17 23:22:00,72.7,61.1,28.41,SSE,164,0.0,0.0,67,0.00,,---,0.20,VWS V14.01,2013-06-18 04:22:00,
2013-06-17 23:27:00,72.5,61.3,28.41,SSE,164,0.0,0.0,68,0.00,,---,0.20,VWS V14.01,2013-06-18 04:27:00,
2013-06-17 23:32:00,72.3,61.6,28.41,SSE,164,0.0,0.0,69,0.00,,---,0.20,VWS V14.01,2013-06-18 04:32:00,
2013-06-17 23:37:00,72.0,61.2,28.44,SSE,164,0.0,0.0,69,0.00,,---,0.20,VWS V14.01,2013-06-18 04:37:00,
2013-06-17 23:43:00,71.8,61.5,28.44,SSE,164,0.0,0.0,70,0.00,,---,0.20,VWS V14.01,2013-06-18 04:43:00,
2013-06-17 23:48:00,71.6,61.3,28.44,SSE,164,0.0,0.0,70,0.00,,---,0.20,VWS V14.01,2013-06-18 04:48:00,
2013-06-17 23:53:00,71.4,61.5,28.44,SSE,164,0.0,0.0,71,0.00,,---,0.20,VWS V14.01,2013-06-18 04:53:00,
2013-06-17 23:58:00,71.2,61.4,28.44,SSE,164,0.0,0.0,71,0.00,,---,0.20,VWS V14.01,2013-06-18 04:58:00,